Naikai2 — JD2433 — position and weather

sailwx.info

Track history (hours):
 
Tides and Currents Weather Stations Pressure Air Temp Water Temp Dewpoint Dewpoint Depression Visibility Wind Speed Wind Dir Waves Ship Positions

Naikai2

Last reported at 2017-Aug-18 10:34 UTC. Time now 2017-Aug-18 23:38 UTC.
Position N 34°38' E 135°10'.

Length 28 m; draft 2.2 m.

Type: Other ship. MMSI: 431000283.

Date/timePositionNaut miles runAvg speedWind from/ knotsBaromVisibWave heightAir tempDewpointWater temp
2017-Aug-18 10:34N 34°38' E 135°10'113.7
2017-Aug-18 10:30N 34°38' E 135°09'715.0
2017-Aug-18 10:00N 34°31' E 135°05'916.2
2017-Aug-18 09:28N 34°23' E 135°01'0 0.3
2017-Aug-18 08:17N 34°23' E 135°01'413.5
2017-Aug-18 08:00N 34°25' E 135°04'714.1
2017-Aug-18 07:30N 34°29' E 135°11'713.4
2017-Aug-18 07:00N 34°33' E 135°18'510.0
2017-Aug-18 06:30N 34°33' E 135°24'1 2.2
2017-Aug-18 06:00N 34°33' E 135°25'0 0.0
2017-Aug-18 05:29N 34°33' E 135°25'4 9.0
2017-Aug-18 05:00N 34°36' E 135°21'611.4
2017-Aug-18 04:30N 34°39' E 135°15'4 7.4
2017-Aug-18 04:00N 34°40' E 135°11'1 2.5
2017-Aug-18 03:30N 34°39' E 135°10'1 0.0
2017-Aug-17 03:22N 34°38' E 135°11'513.6
2017-Aug-17 03:00N 34°37' E 135°16'714.7
2017-Aug-17 02:30N 34°34' E 135°24'0 0.5
2017-Aug-17 01:57N 34°33' E 135°24'4 7.2
2017-Aug-17 01:21N 34°33' E 135°19'4 9.5
2017-Aug-17 00:57N 34°31' E 135°15'1811.8
2017-Aug-16 23:24N 34°18' E 134°60'411.3
2017-Aug-16 23:00N 34°14' E 134°60'2 3.1
2017-Aug-16 22:30N 34°13' E 135°01'712.2
2017-Aug-16 21:56N 34°19' E 135°04'714.5
2017-Aug-16 21:27N 34°26' E 135°06'715.0
2017-Aug-16 21:00N 34°32' E 135°08'713.9
2017-Aug-16 20:30N 34°39' E 135°10'2 0.0
2017-Aug-14 23:41N 34°38' E 135°09'213.8
2017-Aug-14 23:30N 34°37' E 135°06'815.1
2017-Aug-14 23:00N 34°37' E 134°57'2 3.8
2017-Aug-14 22:30N 34°38' E 134°59'510.6
2017-Aug-14 22:00N 34°35' E 135°05'2 4.0
2017-Aug-14 21:30N 34°36' E 135°07'4 8.1
2017-Aug-14 20:57N 34°37' E 135°02'4 8.2
2017-Aug-14 20:30N 34°38' E 134°58'4 7.4
2017-Aug-14 20:00N 34°37' E 135°02'5 9.1
2017-Aug-14 19:30N 34°35' E 135°07'4 9.0
2017-Aug-14 19:00N 34°39' E 135°10'0 0.0
2017-Aug-14 18:30N 34°39' E 135°10'2 0.3
2017-Aug-14 13:00N 34°38' E 135°09'610.9
2017-Aug-14 12:28N 34°36' E 135°02'4 7.6
2017-Aug-14 11:56N 34°36' E 134°57'4 8.8
2017-Aug-14 11:27N 34°38' E 135°02'1 0.7
2017-Aug-14 10:15N 34°38' E 135°03'0 0.0
2017-Aug-14 10:00N 34°38' E 135°03'0 0.0
2017-Aug-14 07:52N 34°38' E 135°03'1 3.5
2017-Aug-14 07:31N 34°37' E 135°04'5 9.0
2017-Aug-14 06:58N 34°37' E 134°58'2 2.8
2017-Aug-14 06:22N 34°35' E 134°57'1 2.8
2017-Aug-14 05:55N 34°36' E 134°58'2 5.2
2017-Aug-14 05:30N 34°37' E 135°01'4 8.5
2017-Aug-14 05:00N 34°35' E 135°05'4 8.2
2017-Aug-14 04:30N 34°35' E 135°10'4 8.9
2017-Aug-14 04:00N 34°34' E 135°16'5 9.1
2017-Aug-14 03:30N 34°34' E 135°21'4 7.6
2017-Aug-14 03:00N 34°33' E 135°26'0 0.4
2017-Aug-14 02:30N 34°33' E 135°26'4 6.2
2017-Aug-14 01:54N 34°33' E 135°21'2 6.1
2017-Aug-14 01:30N 34°34' E 135°18'2 3.2
2017-Aug-14 01:00N 34°35' E 135°17'4 8.8
2017-Aug-14 00:30N 34°39' E 135°14'3 6.8
2017-Aug-14 00:00N 34°40' E 135°11'1 2.1
2017-Aug-13 23:31N 34°39' E 135°11'2 0.1
2017-Aug-13 03:07N 34°38' E 135°10'114.4
2017-Aug-13 03:00N 34°38' E 135°08'4 8.6
2017-Aug-13 02:30N 34°36' E 135°03'3 2.2
2017-Aug-13 01:13N 34°37' E 135°00'1 3.9
2017-Aug-13 01:00N 34°36' E 135°01'0 0.0
2017-Aug-13 00:30N 34°36' E 135°01'0 0.0
2017-Aug-13 00:00N 34°36' E 135°01'0 0.0
2017-Aug-12 23:30N 34°36' E 135°01'0 0.0
2017-Aug-12 23:00N 34°36' E 135°01'0 0.0
2017-Aug-12 22:30N 34°36' E 135°01'1 2.4
2017-Aug-12 22:00N 34°37' E 134°59'2 3.6
2017-Aug-12 21:30N 34°37' E 135°02'5 9.1
2017-Aug-12 21:00N 34°35' E 135°06'510.4
2017-Aug-12 20:30N 34°39' E 135°10'0 0.0
2017-Aug-12 20:00N 34°39' E 135°10'2 0.1
2017-Aug-12 04:34N 34°37' E 135°10'114.9
2017-Aug-12 04:30N 34°37' E 135°09'714.1
2017-Aug-12 03:59N 34°30' E 135°06'6 3.3
2017-Aug-12 02:03N 34°24' E 135°03'215.6
2017-Aug-12 01:54N 34°25' E 135°05'615.1
2017-Aug-12 01:30N 34°29' E 135°11'713.8
2017-Aug-12 01:00N 34°33' E 135°18'4 9.0
2017-Aug-12 00:30N 34°33' E 135°23'1 1.2
2017-Aug-12 00:00N 34°33' E 135°24'510.2
2017-Aug-11 23:30N 34°33' E 135°18'713.1
2017-Aug-11 23:00N 34°37' E 135°12'2 0.1
2017-Aug-11 08:18N 34°39' E 135°10'412.3
2017-Aug-11 08:00N 34°37' E 135°06'  
Track history (hours):
 
Tides and Currents Weather Stations Pressure Air Temp Water Temp Dewpoint Dewpoint Depression Visibility Wind Speed Wind Dir Waves Ship Positions

Naikai2

Last reported at 2017-Aug-18 10:34 UTC. Time now 2017-Aug-18 23:38 UTC.
Position N 34°38' E 135°10'.

Length 28 m; draft 2.2 m.

Type: Other ship. MMSI: 431000283.

Date/timePositionNaut miles runAvg speedWind from/ knotsBaromVisibWave heightAir tempDewpointWater temp
2017-Aug-18 10:34N 34°38' E 135°10'113.7
2017-Aug-18 10:30N 34°38' E 135°09'715.0
2017-Aug-18 10:00N 34°31' E 135°05'916.2
2017-Aug-18 09:28N 34°23' E 135°01'0 0.3
2017-Aug-18 08:17N 34°23' E 135°01'413.5
2017-Aug-18 08:00N 34°25' E 135°04'714.1
2017-Aug-18 07:30N 34°29' E 135°11'713.4
2017-Aug-18 07:00N 34°33' E 135°18'510.0
2017-Aug-18 06:30N 34°33' E 135°24'1 2.2
2017-Aug-18 06:00N 34°33' E 135°25'0 0.0
2017-Aug-18 05:29N 34°33' E 135°25'4 9.0
2017-Aug-18 05:00N 34°36' E 135°21'611.4
2017-Aug-18 04:30N 34°39' E 135°15'4 7.4
2017-Aug-18 04:00N 34°40' E 135°11'1 2.5
2017-Aug-18 03:30N 34°39' E 135°10'1 0.0
2017-Aug-17 03:22N 34°38' E 135°11'513.6
2017-Aug-17 03:00N 34°37' E 135°16'714.7
2017-Aug-17 02:30N 34°34' E 135°24'0 0.5
2017-Aug-17 01:57N 34°33' E 135°24'4 7.2
2017-Aug-17 01:21N 34°33' E 135°19'4 9.5
2017-Aug-17 00:57N 34°31' E 135°15'1811.8
2017-Aug-16 23:24N 34°18' E 134°60'411.3
2017-Aug-16 23:00N 34°14' E 134°60'2 3.1
2017-Aug-16 22:30N 34°13' E 135°01'712.2
2017-Aug-16 21:56N 34°19' E 135°04'714.5
2017-Aug-16 21:27N 34°26' E 135°06'715.0
2017-Aug-16 21:00N 34°32' E 135°08'713.9
2017-Aug-16 20:30N 34°39' E 135°10'2 0.0
2017-Aug-14 23:41N 34°38' E 135°09'213.8
2017-Aug-14 23:30N 34°37' E 135°06'815.1
2017-Aug-14 23:00N 34°37' E 134°57'2 3.8
2017-Aug-14 22:30N 34°38' E 134°59'510.6
2017-Aug-14 22:00N 34°35' E 135°05'2 4.0
2017-Aug-14 21:30N 34°36' E 135°07'4 8.1
2017-Aug-14 20:57N 34°37' E 135°02'4 8.2
2017-Aug-14 20:30N 34°38' E 134°58'4 7.4
2017-Aug-14 20:00N 34°37' E 135°02'5 9.1
2017-Aug-14 19:30N 34°35' E 135°07'4 9.0
2017-Aug-14 19:00N 34°39' E 135°10'0 0.0
2017-Aug-14 18:30N 34°39' E 135°10'2 0.3
2017-Aug-14 13:00N 34°38' E 135°09'610.9
2017-Aug-14 12:28N 34°36' E 135°02'4 7.6
2017-Aug-14 11:56N 34°36' E 134°57'4 8.8
2017-Aug-14 11:27N 34°38' E 135°02'1 0.7
2017-Aug-14 10:15N 34°38' E 135°03'0 0.0
2017-Aug-14 10:00N 34°38' E 135°03'0 0.0
2017-Aug-14 07:52N 34°38' E 135°03'1 3.5
2017-Aug-14 07:31N 34°37' E 135°04'5 9.0
2017-Aug-14 06:58N 34°37' E 134°58'2 2.8
2017-Aug-14 06:22N 34°35' E 134°57'1 2.8
2017-Aug-14 05:55N 34°36' E 134°58'2 5.2
2017-Aug-14 05:30N 34°37' E 135°01'4 8.5
2017-Aug-14 05:00N 34°35' E 135°05'4 8.2
2017-Aug-14 04:30N 34°35' E 135°10'4 8.9
2017-Aug-14 04:00N 34°34' E 135°16'5 9.1
2017-Aug-14 03:30N 34°34' E 135°21'4 7.6
2017-Aug-14 03:00N 34°33' E 135°26'0 0.4
2017-Aug-14 02:30N 34°33' E 135°26'4 6.2
2017-Aug-14 01:54N 34°33' E 135°21'2 6.1
2017-Aug-14 01:30N 34°34' E 135°18'2 3.2
2017-Aug-14 01:00N 34°35' E 135°17'4 8.8
2017-Aug-14 00:30N 34°39' E 135°14'3 6.8
2017-Aug-14 00:00N 34°40' E 135°11'1 2.1
2017-Aug-13 23:31N 34°39' E 135°11'2 0.1
2017-Aug-13 03:07N 34°38' E 135°10'114.4
2017-Aug-13 03:00N 34°38' E 135°08'4 8.6
2017-Aug-13 02:30N 34°36' E 135°03'3 2.2
2017-Aug-13 01:13N 34°37' E 135°00'1 3.9
2017-Aug-13 01:00N 34°36' E 135°01'0 0.0
2017-Aug-13 00:30N 34°36' E 135°01'0 0.0
2017-Aug-13 00:00N 34°36' E 135°01'0 0.0
2017-Aug-12 23:30N 34°36' E 135°01'0 0.0
2017-Aug-12 23:00N 34°36' E 135°01'0 0.0
2017-Aug-12 22:30N 34°36' E 135°01'1 2.4
2017-Aug-12 22:00N 34°37' E 134°59'2 3.6
2017-Aug-12 21:30N 34°37' E 135°02'5 9.1
2017-Aug-12 21:00N 34°35' E 135°06'510.4
2017-Aug-12 20:30N 34°39' E 135°10'0 0.0
2017-Aug-12 20:00N 34°39' E 135°10'2 0.1
2017-Aug-12 04:34N 34°37' E 135°10'114.9
2017-Aug-12 04:30N 34°37' E 135°09'714.1
2017-Aug-12 03:59N 34°30' E 135°06'6 3.3
2017-Aug-12 02:03N 34°24' E 135°03'215.6
2017-Aug-12 01:54N 34°25' E 135°05'615.1
2017-Aug-12 01:30N 34°29' E 135°11'713.8
2017-Aug-12 01:00N 34°33' E 135°18'4 9.0
2017-Aug-12 00:30N 34°33' E 135°23'1 1.2
2017-Aug-12 00:00N 34°33' E 135°24'510.2
2017-Aug-11 23:30N 34°33' E 135°18'713.1
2017-Aug-11 23:00N 34°37' E 135°12'2 0.1
2017-Aug-11 08:18N 34°39' E 135°10'412.3
2017-Aug-11 08:00N 34°37' E 135°06'  

Dump ship's entire track history